Terminal Aerodrome Forecast
Issued by NWS

Home | Current Version | Previous Version | Text Only | Print | Product List | Glossary On
Versions: 1 2 3 4 5 6 7 8 9 10 11 12 13 14 15
598
FTUS46 KMTR 232320
TAFSNS
TAF
KSNS 232320Z 2400/2424 28006KT P6SM SKC
     FM240300 VRB03KT P6SM FEW200
     FM241100 12005KT P6SM BKN050
     FM241600 11011KT P6SM BKN050
     FM242000 11018KT P6SM BKN030=

USA.gov is the U.S. government's official web portal to all federal, state and local government web resources and services.